aviador You're here:

EPMO Decoded Metar

in
Report Time2018-05-23 20:30:00
UTC Time2018-05-23 20:41:41
Flight Rules vfr VFR
Wind020° at 05 kt
W.Decomp.*RWY 08: 2.5 kt HW 4.3 kt LCW
W.Rank020° ranks 30
Current wind is below 020° avg. (5.8)
Visibility9999 m
Phenomena:N/A
Clouds:N/A
Expected CloudBase > 2,400 ft AGL from Temp-Dew spread
CeilingNone
Temp15°C
Dew Point09°C (68% RH)
AAT13.0°C
QNH1023 hPa
Raw Report
EPMO 232030Z 02005KT CAVOK 15/09 Q1023=

Extra information for EPMO:More info

Social comments